Time,TemperatureF,DewpointF,PressureIn,WindDirection,WindDirectionDegrees,WindSpeedMPH,WindSpeedGustMPH,Humidity,HourlyPrecipIn,Conditions,Clouds,dailyrainin,SoftwareType,DateUTC
2013-01-11 00:14:00,60.3,58.0,29.94,SW,218,5.0,7.0,92,0.12,,,0.00,VWS V14.01,2013-01-11 06:14:00,
2013-01-11 00:29:00,60.3,58.0,29.94,SSW,193,5.0,7.0,92,0.12,,,0.00,VWS V14.01,2013-01-11 06:29:00,
2013-01-11 00:44:00,60.4,58.1,29.94,South,184,2.0,10.0,92,0.10,,,0.00,VWS V14.01,2013-01-11 06:44:00,
2013-01-11 00:59:00,60.5,57.6,29.95,SW,231,2.0,10.0,90,0.01,,,0.00,VWS V14.01,2013-01-11 06:59:00,
2013-01-11 01:14:00,60.4,57.2,29.95,SSE,158,2.0,8.0,89,0.00,,,0.00,VWS V14.01,2013-01-11 07:14:00,
2013-01-11 01:29:00,60.1,56.8,29.95,South,190,2.0,8.0,89,0.00,,,0.00,VWS V14.01,2013-01-11 07:29:00,
2013-01-11 01:44:00,59.7,56.2,29.95,South,174,3.0,7.0,88,0.00,,,0.00,VWS V14.01,2013-01-11 07:44:00,
2013-01-11 01:59:00,59.5,56.3,29.96,SW,222,1.0,7.0,89,0.00,,,0.00,VWS V14.01,2013-01-11 07:59:00,
2013-01-11 02:14:00,59.1,55.9,29.97,SSW,207,3.0,9.0,89,0.00,,,0.00,VWS V14.01,2013-01-11 08:14:00,
2013-01-11 02:29:00,58.7,55.8,29.97,South,180,2.0,5.0,90,0.00,,,0.00,VWS V14.01,2013-01-11 08:29:00,
2013-01-11 02:44:00,58.4,55.5,29.98,South,190,2.0,6.0,90,0.00,,,0.00,VWS V14.01,2013-01-11 08:44:00,
2013-01-11 02:59:00,58.3,55.7,29.97,SW,222,1.0,6.0,91,0.00,,,0.00,VWS V14.01,2013-01-11 08:59:00,
2013-01-11 03:14:00,58.3,55.7,29.98,South,191,4.0,8.0,91,0.00,,,0.00,VWS V14.01,2013-01-11 09:14:00,
2013-01-11 03:29:00,58.4,55.8,29.98,South,188,1.0,7.0,91,0.00,,,0.00,VWS V14.01,2013-01-11 09:29:00,
2013-01-11 03:44:00,58.4,55.8,29.99,SSW,200,5.0,10.0,91,0.00,,,0.00,VWS V14.01,2013-01-11 09:44:00,
2013-01-11 03:59:00,58.3,55.7,29.97,SSW,208,1.0,6.0,91,0.00,,,0.00,VWS V14.01,2013-01-11 09:59:00,
2013-01-11 04:14:00,58.1,55.5,29.99,SSW,211,4.0,8.0,91,0.00,,,0.00,VWS V14.01,2013-01-11 10:14:00,
2013-01-11 04:29:00,58.0,55.4,29.99,South,177,2.0,6.0,91,0.00,,,0.00,VWS V14.01,2013-01-11 10:29:00,
2013-01-11 04:44:00,57.7,55.1,29.98,South,181,2.0,5.0,91,0.00,,,0.00,VWS V14.01,2013-01-11 10:44:00,
2013-01-11 04:59:00,57.1,54.5,29.98,South,189,2.0,9.0,91,0.00,,,0.00,VWS V14.01,2013-01-11 10:59:00,
2013-01-11 05:14:00,56.5,54.2,29.98,SW,232,2.0,6.0,92,0.00,,,0.00,VWS V14.01,2013-01-11 11:14:00,
2013-01-11 05:29:00,56.1,54.1,29.98,WNW,285,0.0,6.0,93,0.00,,,0.00,VWS V14.01,2013-01-11 11:29:00,
2013-01-11 05:44:00,55.7,54.0,29.99,SSE,151,3.0,5.0,94,0.00,,,0.00,VWS V14.01,2013-01-11 11:44:00,
2013-01-11 05:59:00,55.4,53.7,29.99,South,173,0.0,6.0,94,0.00,,,0.00,VWS V14.01,2013-01-11 11:59:00,
2013-01-11 06:14:00,55.0,53.0,30.00,SSW,200,1.0,4.0,93,0.00,,,0.00,VWS V14.01,2013-01-11 12:14:00,
2013-01-11 06:29:00,54.7,53.0,30.00,SSW,201,2.0,5.0,94,0.00,,,0.00,VWS V14.01,2013-01-11 12:29:00,
2013-01-11 06:44:00,54.5,52.8,30.00,SSW,198,1.0,5.0,94,0.00,,,0.00,VWS V14.01,2013-01-11 12:44:00,
2013-01-11 06:59:00,54.1,52.4,30.00,South,184,0.0,3.0,94,0.00,,,0.00,VWS V14.01,2013-01-11 12:59:00,
2013-01-11 07:14:00,53.8,52.4,30.01,SSW,207,0.0,4.0,95,0.00,,,0.00,VWS V14.01,2013-01-11 13:14:00,
2013-01-11 07:29:00,53.8,52.4,30.01,SSW,194,2.0,4.0,95,0.00,,,0.00,VWS V14.01,2013-01-11 13:29:00,
2013-01-11 07:44:00,54.2,52.5,30.02,SSW,212,0.0,4.0,94,0.00,,,0.00,VWS V14.01,2013-01-11 13:44:00,
2013-01-11 07:59:00,54.7,52.7,30.01,South,180,2.0,4.0,93,0.00,,,0.00,VWS V14.01,2013-01-11 13:59:00,
2013-01-11 08:14:00,55.3,53.0,30.02,SSW,211,2.0,5.0,92,0.00,,,0.00,VWS V14.01,2013-01-11 14:14:00,
2013-01-11 08:29:00,55.7,52.8,30.03,SW,221,2.0,4.0,90,0.00,,,0.00,VWS V14.01,2013-01-11 14:29:00,
2013-01-11 08:44:00,56.3,52.8,30.04,South,176,1.0,5.0,88,0.00,,,0.00,VWS V14.01,2013-01-11 14:44:00,
2013-01-11 08:59:00,56.9,52.8,30.03,South,186,1.0,7.0,86,0.00,,,0.00,VWS V14.01,2013-01-11 14:59:00,
2013-01-11 09:14:00,57.5,52.4,30.04,SSW,211,6.0,8.0,83,0.00,,,0.00,VWS V14.01,2013-01-11 15:14:00,
2013-01-11 09:29:00,58.4,52.6,30.04,SSW,207,7.0,8.0,81,0.00,,,0.00,VWS V14.01,2013-01-11 15:29:00,
2013-01-11 09:44:00,58.9,52.4,30.04,South,177,5.0,8.0,79,0.00,,,0.00,VWS V14.01,2013-01-11 15:44:00,
2013-01-11 09:59:00,59.6,52.4,30.04,SSE,162,3.0,10.0,77,0.00,,,0.00,VWS V14.01,2013-01-11 15:59:00,
2013-01-11 10:14:00,59.9,52.0,30.04,SE,125,1.0,9.0,75,0.00,,,0.00,VWS V14.01,2013-01-11 16:14:00,
2013-01-11 10:29:00,61.1,52.8,30.04,SSE,162,0.0,7.0,74,0.00,,,0.00,VWS V14.01,2013-01-11 16:29:00,
2013-01-11 10:44:00,61.5,52.0,30.03,SSW,201,2.0,12.0,71,0.00,,,0.00,VWS V14.01,2013-01-11 16:44:00,
2013-01-11 10:59:00,61.5,51.2,30.03,SSW,200,4.0,8.0,69,0.00,,,0.00,VWS V14.01,2013-01-11 16:59:00,
2013-01-11 11:14:00,61.8,50.7,30.02,South,180,3.0,12.0,67,0.00,,,0.00,VWS V14.01,2013-01-11 17:14:00,
2013-01-11 11:29:00,62.4,50.9,30.02,SSE,149,3.0,10.0,66,0.00,,,0.00,VWS V14.01,2013-01-11 17:29:00,
2013-01-11 11:44:00,63.2,51.2,30.01,SSW,192,3.0,9.0,65,0.00,,,0.00,VWS V14.01,2013-01-11 17:44:00,
2013-01-11 11:59:00,63.7,50.0,30.00,SSE,155,5.0,8.0,61,0.00,,,0.00,VWS V14.01,2013-01-11 17:59:00,
2013-01-11 12:14:00,64.0,50.3,30.00,SW,219,6.0,10.0,61,0.00,,,0.00,VWS V14.01,2013-01-11 18:14:00,
2013-01-11 12:29:00,64.4,49.8,29.99,South,181,4.0,13.0,59,0.00,,,0.00,VWS V14.01,2013-01-11 18:29:00,
2013-01-11 12:44:00,64.7,50.1,29.99,SSW,206,4.0,11.0,59,0.00,,,0.00,VWS V14.01,2013-01-11 18:44:00,
2013-01-11 12:59:00,65.2,50.1,29.98,SW,225,7.0,9.0,58,0.00,,,0.00,VWS V14.01,2013-01-11 18:59:00,
2013-01-11 13:14:00,65.5,50.8,29.98,SSE,167,6.0,9.0,59,0.00,,,0.00,VWS V14.01,2013-01-11 19:14:00,
2013-01-11 13:29:00,66.2,50.5,29.98,SSW,205,5.0,9.0,57,0.00,,,0.00,VWS V14.01,2013-01-11 19:29:00,
2013-01-11 13:44:00,65.9,49.8,29.97,SSE,158,4.0,10.0,56,0.00,,,0.00,VWS V14.01,2013-01-11 19:44:00,
2013-01-11 13:59:00,66.2,51.0,29.97,SE,146,3.0,9.0,58,0.00,,,0.00,VWS V14.01,2013-01-11 19:59:00,
2013-01-11 14:14:00,66.6,51.4,29.97,SE,129,5.0,9.0,58,0.00,,,0.00,VWS V14.01,2013-01-11 20:14:00,
2013-01-11 14:30:00,66.4,50.2,29.97,SSW,202,3.0,12.0,56,0.00,,,0.00,VWS V14.01,2013-01-11 20:30:00,
2013-01-11 14:45:00,66.5,50.3,29.97,SSW,202,2.0,9.0,56,0.00,,,0.00,VWS V14.01,2013-01-11 20:45:00,
2013-01-11 15:00:00,66.7,50.5,29.97,SSW,202,3.0,7.0,56,0.00,,,0.00,VWS V14.01,2013-01-11 21:00:00,
2013-01-11 15:29:00,66.0,49.9,29.96,WSW,248,1.0,5.0,56,0.00,,,0.00,VWS V14.01,2013-01-11 21:29:00,
2013-01-11 15:44:00,65.8,50.2,29.96,SSW,206,0.0,7.0,57,0.00,,,0.00,VWS V14.01,2013-01-11 21:44:00,
2013-01-11 15:59:00,65.8,50.6,29.95,South,184,1.0,5.0,58,0.00,,,0.00,VWS V14.01,2013-01-11 21:59:00,
2013-01-11 16:14:00,67.0,51.3,29.94,SW,221,3.0,5.0,57,0.00,,,0.00,VWS V14.01,2013-01-11 22:14:00,
2013-01-11 16:29:00,66.8,51.1,29.94,SW,215,0.0,6.0,57,0.00,,,0.00,VWS V14.01,2013-01-11 22:29:00,
2013-01-11 16:44:00,66.2,51.0,29.94,SE,142,0.0,5.0,58,0.00,,,0.00,VWS V14.01,2013-01-11 22:44:00,
2013-01-11 16:59:00,65.0,51.2,29.95,ESE,115,1.0,4.0,61,0.00,,,0.00,VWS V14.01,2013-01-11 22:59:00,
2013-01-11 17:14:00,63.9,50.6,29.95,South,179,0.0,2.0,62,0.00,,,0.00,VWS V14.01,2013-01-11 23:14:00,
2013-01-11 17:29:00,62.8,50.9,29.95,South,177,0.0,1.0,65,0.00,,,0.00,VWS V14.01,2013-01-11 23:29:00,
2013-01-11 17:44:00,61.3,50.7,29.94,SE,129,0.0,0.0,68,0.00,,,0.00,VWS V14.01,2013-01-11 23:44:00,
2013-01-11 17:59:00,60.2,50.8,29.94,SE,128,0.0,0.0,71,0.00,,,0.00,VWS V14.01,2013-01-11 23:59:00,
2013-01-11 18:14:00,60.0,50.6,29.93,ESE,105,0.0,2.0,71,0.00,,,0.00,VWS V14.01,2013-01-12 00:14:00,
2013-01-11 18:29:00,59.7,50.7,29.94,ESE,115,0.0,1.0,72,0.00,,,0.00,VWS V14.01,2013-01-12 00:29:00,
2013-01-11 18:44:00,59.4,50.8,29.93,South,171,0.0,2.0,73,0.00,,,0.00,VWS V14.01,2013-01-12 00:44:00,
2013-01-11 18:59:00,59.7,51.4,29.92,ESE,110,1.0,4.0,74,0.00,,,0.00,VWS V14.01,2013-01-12 00:59:00,
2013-01-11 19:14:00,60.3,52.3,29.93,SSE,162,0.0,5.0,75,0.00,,,0.00,VWS V14.01,2013-01-12 01:14:00,
2013-01-11 19:29:00,60.8,52.8,29.93,SW,234,2.0,6.0,75,0.00,,,0.00,VWS V14.01,2013-01-12 01:29:00,
2013-01-11 19:44:00,60.9,52.9,29.93,SE,130,1.0,5.0,75,0.00,,,0.00,VWS V14.01,2013-01-12 01:44:00,
2013-01-11 19:59:00,61.1,53.5,29.93,East,93,1.0,6.0,76,0.00,,,0.00,VWS V14.01,2013-01-12 01:59:00,
2013-01-11 20:14:00,61.2,53.9,29.93,SSE,148,0.0,9.0,77,0.00,,,0.00,VWS V14.01,2013-01-12 02:14:00,
2013-01-11 20:29:00,60.8,54.3,29.94,SSE,168,0.0,6.0,79,0.00,,,0.00,VWS V14.01,2013-01-12 02:29:00,
2013-01-11 20:44:00,60.7,54.5,29.94,ESE,109,3.0,4.0,80,0.00,,,0.00,VWS V14.01,2013-01-12 02:44:00,
2013-01-11 20:59:00,60.5,54.7,29.94,ESE,108,3.0,5.0,81,0.00,,,0.00,VWS V14.01,2013-01-12 02:59:00,
2013-01-11 21:14:00,61.0,56.1,29.94,SE,128,2.0,9.0,84,0.00,,,0.00,VWS V14.01,2013-01-12 03:14:00,
2013-01-11 21:30:00,61.1,56.9,29.94,South,180,2.0,6.0,86,0.00,,,0.00,VWS V14.01,2013-01-12 03:30:00,
2013-01-11 21:45:00,61.3,57.7,29.93,South,180,2.0,7.0,88,0.00,,,0.00,VWS V14.01,2013-01-12 03:45:00,
2013-01-11 22:00:00,61.5,58.2,29.94,SSW,202,3.0,10.0,89,0.00,,,0.00,VWS V14.01,2013-01-12 04:00:00,
2013-01-11 22:15:00,61.8,58.8,29.94,South,180,3.0,10.0,90,0.00,,,0.00,VWS V14.01,2013-01-12 04:15:00,
2013-01-11 22:30:00,62.1,59.1,29.94,South,180,4.0,10.0,90,0.00,,,0.00,VWS V14.01,2013-01-12 04:30:00,
2013-01-11 22:45:00,62.4,60.0,29.93,South,180,4.0,9.0,92,0.00,,,0.00,VWS V14.01,2013-01-12 04:45:00,
2013-01-11 23:00:00,62.5,60.2,29.93,South,180,3.0,10.0,92,0.00,,,0.00,VWS V14.01,2013-01-12 05:00:00,
2013-01-11 23:15:00,62.6,60.2,29.93,South,180,4.0,11.0,92,0.00,,,0.00,VWS V14.01,2013-01-12 05:15:00,
2013-01-11 23:30:00,62.6,60.5,29.93,South,180,3.0,9.0,93,0.00,,,0.00,VWS V14.01,2013-01-12 05:30:00,
2013-01-11 23:45:00,62.8,60.8,29.94,South,180,3.0,8.0,93,0.00,,,0.00,VWS V14.01,2013-01-12 05:45:00,